METAR AND TAF INFORMATION
METAR FOR LEGE
ADDS - METARS form results

(1120 UTC 23 May 2019)
Data provider http://aviationweather.gov/metar/data/
 
METAR text: LEGE 231100Z 21003KT CAVOK 24/11 Q1017
Conditions at: LEGE (GERONA/COSTA BRA, ES) observed 1100 UTC 23 May 2019
Temperature: 24.0°C (75°F)
Dewpoint: 11.0°C (52°F) [RH = 44%]
Pressure (altimeter): 30.03 inches Hg (1017.0 mb)
Winds: from the SSW (210 degrees) at 3 MPH (3 knots; 1.5 m/s)
Visibility: 6 or more miles (10+ km)
Ceiling: ceiling and visibility are OK
Clouds: unknown
Weather: no significant weather observed at this time

METAR text: LEGE 231030Z 14001KT CAVOK 24/11 Q1017
Conditions at: LEGE (GERONA/COSTA BRA, ES) observed 1030 UTC 23 May 2019
Temperature: 24.0°C (75°F)
Dewpoint: 11.0°C (52°F) [RH = 44%]
Pressure (altimeter): 30.03 inches Hg (1017.0 mb)
Winds: from the SE (140 degrees) at 1 MPH (1 knots; 0.5 m/s)
Visibility: 6 or more miles (10+ km)
Ceiling: ceiling and visibility are OK
Clouds: unknown
Weather: no significant weather observed at this time

Forecast for: LEGE (GERONA/COSTA BRA, ES)
Text: TAF LEGE 230500Z 2306/2406 VRB03KT 9999 FEW025 TX26/2313Z TN12/2306Z
Forecast period: 0600 to 1000 UTC 23 May 2019
Forecast type: FROM: standard forecast or significant change
Winds: variable direction winds at 3 MPH (3 knots; 1.5 m/s)
Visibility: 6 or more miles 10+ km)
Ceiling: at least 12,000 feet AGL
Clouds: few clouds at 2500 feet AGL
Weather: no significant weather forecast for this period
Text: BECMG 2310/2312 18013KT
Forecast period: 1000 to 1800 UTC 23 May 2019
Forecast type: BECOMING: Conditions expected to become as follows by 1200 UTC 23 May 2019
Winds: from the S (180 degrees) at 15 MPH (13 knots; 6.7 m/s)
Visibility: 6 or more miles 10+ km)
Ceiling: at least 12,000 feet AGL
Clouds: few clouds at 2500 feet AGL
Weather: no significant weather forecast for this period
Text: BECMG 2318/2320 VRB03KT
Forecast period: 1800 UTC 23 May 2019 to 0600 UTC 24 May 2019
Forecast type: BECOMING: Conditions expected to become as follows by 2000 UTC 23 May 2019
Winds: variable direction winds at 3 MPH (3 knots; 1.5 m/s)
Visibility: 6 or more miles 10+ km)
Ceiling: at least 12,000 feet AGL
Clouds: few clouds at 2500 feet AGL
Weather: no significant weather forecast for this period

AIRPORT MAP

RUNWAY INFORMATION
Runway 02 Runway length 7874 ft Runway width 148 ft
Runway elevation 403 ft Runway displaced threshold 0 ft Runway heading 16
Runway 20 Runway length 7874 ft Runway width 148 ft
Runway elevation 468 ft Runway displaced threshold 0 ft Runway heading 196

AIRPORT FREQUENCIES
Type APP Name APP Frequency 120.9 MHZ
Type GND Name GND Frequency 121.7 MHZ
Type TWR Name TWR Frequency 118.5 MHZ

AIRPORT NEAR NAVIGATION AIDS
Type VOR-DME Name Gerona Frequency 114100 KHZ
Type NDB Name Gerona Frequency 412 KHZ